createdAt,value
2024-01-26T00:01:44.653Z,102337.88
2024-01-26T00:04:12.047Z,102333.56
2024-01-26T00:06:39.533Z,102329.22
2024-01-26T00:09:17.248Z,102332.69
2024-01-26T00:11:44.802Z,102324.91
2024-01-26T00:14:11.931Z,102318.88
2024-01-26T00:16:40.088Z,102313.69
2024-01-26T00:19:07.699Z,102310.22
2024-01-26T00:21:35.324Z,102315.41
2024-01-26T00:24:02.696Z,102299.84
2024-01-26T00:26:29.814Z,102292.94
2024-01-26T00:28:57.462Z,102291.19
2024-01-26T00:31:24.689Z,102298.97
2024-01-26T00:33:51.965Z,102296.38
2024-01-26T00:36:19.427Z,102298.13
2024-01-26T00:38:46.657Z,102305.91
2024-01-26T00:41:13.787Z,102304.16
2024-01-26T00:43:40.915Z,102297.25
2024-01-26T00:46:09.031Z,102291.22
2024-01-26T00:48:38.032Z,102292.94
2024-01-26T00:51:08.089Z,102282.56
2024-01-26T00:53:35.192Z,102292.94
2024-01-26T00:56:02.359Z,102292.06
2024-01-26T00:58:30.427Z,102283.44
2024-01-26T01:00:57.838Z,102282.56
2024-01-26T01:03:25.546Z,102280.84
2024-01-26T01:05:53.070Z,102280.84
2024-01-26T01:08:20.340Z,102278.25
2024-01-26T01:10:47.381Z,102273.91
2024-01-26T01:13:16.279Z,102280.84
2024-01-26T01:15:43.439Z,102274.81
2024-01-26T01:18:10.778Z,102279.13
2024-01-26T01:20:38.142Z,102279.13
2024-01-26T01:23:06.154Z,102282.59
2024-01-26T01:25:33.295Z,102274.81
2024-01-26T01:28:00.405Z,102271.34
2024-01-26T01:30:27.514Z,102256.66
2024-01-26T01:32:54.666Z,102261.84
2024-01-26T01:35:21.825Z,102256.66
2024-01-26T01:37:48.939Z,102257.53
2024-01-26T01:40:16.176Z,102238.50
2024-01-26T01:42:43.643Z,102238.50
2024-01-26T01:45:15.761Z,102235.94
2024-01-26T01:47:44.416Z,102232.47
2024-01-26T01:50:12.825Z,102234.22
2024-01-26T01:52:43.420Z,102229.88
2024-01-26T01:55:12.493Z,102235.91
2024-01-26T01:57:41.699Z,102232.47
2024-01-26T02:00:28.111Z,102227.25
2024-01-26T02:02:55.340Z,102217.75
2024-01-26T02:05:22.566Z,102223.78
2024-01-26T02:07:51.342Z,102209.13
2024-01-26T02:10:19.577Z,102211.72
2024-01-26T02:12:46.813Z,102212.56
2024-01-26T02:15:15.319Z,102208.25
2024-01-26T02:17:46.404Z,102194.41
2024-01-26T02:20:13.648Z,102194.41
2024-01-26T02:22:40.793Z,102180.59
2024-01-26T02:25:08.993Z,102180.59
2024-01-26T02:27:36.897Z,102182.31
2024-01-26T02:30:04.872Z,102177.13
2024-01-26T02:32:32.375Z,102169.38
2024-01-26T02:34:59.678Z,102173.69
2024-01-26T02:37:26.819Z,102181.47
2024-01-26T02:39:53.979Z,102184.91
2024-01-26T02:42:21.150Z,102176.31
2024-01-26T02:44:48.561Z,102167.66
2024-01-26T02:47:16.362Z,102165.06
2024-01-26T02:49:44.497Z,102166.81
2024-01-26T02:52:11.796Z,102164.22
2024-01-26T02:54:39.050Z,102149.50
2024-01-26T02:57:06.428Z,102146.03
2024-01-26T02:59:33.581Z,102136.53
2024-01-26T03:02:00.788Z,102115.78
2024-01-26T03:04:28.089Z,102113.19
2024-01-26T03:06:57.872Z,102107.13
2024-01-26T03:09:25.166Z,102094.16
2024-01-26T03:11:52.476Z,102086.38
2024-01-26T03:14:20.345Z,102091.56
2024-01-26T03:16:48.175Z,102095.03
2024-01-26T03:19:15.693Z,102091.59
2024-01-26T03:21:46.083Z,102082.94
2024-01-26T03:24:14.472Z,102089.84
2024-01-26T03:26:41.956Z,102084.69
2024-01-26T03:29:09.267Z,102088.09
2024-01-26T03:31:36.391Z,102074.28
2024-01-26T03:34:03.765Z,102067.34
2024-01-26T03:36:31.064Z,102067.34
2024-01-26T03:38:58.407Z,102050.91
2024-01-26T03:41:25.693Z,102038.84
2024-01-26T03:43:54.009Z,102047.47
2024-01-26T03:46:22.099Z,102063.91
2024-01-26T03:48:50.205Z,102049.19
2024-01-26T03:51:17.880Z,102037.97
2024-01-26T03:53:45.196Z,102048.31
2024-01-26T03:56:12.373Z,102051.78
2024-01-26T03:58:39.654Z,102041.38
2024-01-26T04:01:07.420Z,102025.81
2024-01-26T04:03:34.961Z,102031.88
2024-01-26T04:06:05.354Z,102025.84
2024-01-26T04:08:32.661Z,102024.97
2024-01-26T04:10:59.967Z,102021.50
2024-01-26T04:13:27.245Z,102007.69
2024-01-26T04:15:54.470Z,102012.84
2024-01-26T04:18:22.004Z,102009.38
2024-01-26T04:20:50.238Z,102009.38
2024-01-26T04:23:17.670Z,102006.78
2024-01-26T04:25:45.362Z,102002.47
2024-01-26T04:28:12.622Z,102006.78
2024-01-26T04:30:41.600Z,101996.41
2024-01-26T04:33:09.051Z,101989.47
2024-01-26T04:35:36.611Z,101987.75
2024-01-26T04:38:04.029Z,101989.44
2024-01-26T04:40:31.242Z,102001.56
2024-01-26T04:42:58.962Z,101992.06
2024-01-26T04:45:26.162Z,101980.78
2024-01-26T04:47:53.702Z,101988.56
2024-01-26T04:50:20.932Z,101982.50
2024-01-26T04:52:50.757Z,101962.63
2024-01-26T04:55:18.028Z,101963.50
2024-01-26T04:57:45.162Z,101966.94
2024-01-26T05:00:13.170Z,101960.03
2024-01-26T05:02:40.411Z,101944.44
2024-01-26T05:05:07.721Z,101948.75
2024-01-26T05:07:34.844Z,101947.88
2024-01-26T05:10:02.359Z,101934.03
2024-01-26T05:12:29.506Z,101932.31
2024-01-26T05:14:56.778Z,101918.47
2024-01-26T05:17:23.916Z,101907.19
2024-01-26T05:19:51.454Z,101908.09
2024-01-26T05:22:20.233Z,101899.41
2024-01-26T05:24:47.591Z,101893.34
2024-01-26T05:27:14.838Z,101882.09
2024-01-26T05:29:42.783Z,101876.91
2024-01-26T05:32:11.335Z,101879.50
2024-01-26T05:34:38.803Z,101892.47
2024-01-26T05:37:06.320Z,101885.56
2024-01-26T05:39:36.219Z,101890.75
2024-01-26T05:42:03.785Z,101881.22
2024-01-26T05:44:31.122Z,101873.44
2024-01-26T05:46:58.402Z,101876.03
2024-01-26T05:49:27.481Z,101872.56
2024-01-26T05:51:54.784Z,101868.25
2024-01-26T05:54:21.948Z,101860.50
2024-01-26T05:56:49.145Z,101865.69
2024-01-26T05:59:16.361Z,101851.84
2024-01-26T06:01:43.448Z,101858.78
2024-01-26T06:04:10.739Z,101851.88
2024-01-26T06:06:37.945Z,101854.47
2024-01-26T06:09:05.520Z,101863.97
2024-01-26T06:11:34.094Z,101858.81
2024-01-26T06:14:01.701Z,101854.47
2024-01-26T06:16:28.796Z,101863.97
2024-01-26T06:18:56.068Z,101846.69
2024-01-26T06:21:23.670Z,101838.94
2024-01-26T06:23:50.995Z,101836.31
2024-01-26T06:26:18.157Z,101847.56
2024-01-26T06:28:45.228Z,101838.03
2024-01-26T06:31:12.356Z,101826.81
2024-01-26T06:33:40.161Z,101833.72
2024-01-26T06:36:07.572Z,101832.88
2024-01-26T06:38:34.785Z,101836.31
2024-01-26T06:41:02.045Z,101837.19
2024-01-26T06:43:30.327Z,101826.81
2024-01-26T06:45:57.624Z,101831.16
2024-01-26T06:48:26.798Z,101817.31
2024-01-26T06:50:54.481Z,101832.88
2024-01-26T06:53:22.626Z,101820.78
2024-01-26T06:55:53.630Z,101818.16
2024-01-26T06:58:21.212Z,101810.38
2024-01-26T07:00:48.569Z,101831.97
2024-01-26T07:03:15.802Z,101825.06
2024-01-26T07:05:43.847Z,101808.59
2024-01-26T07:08:11.509Z,101822.44
2024-01-26T07:10:38.718Z,101820.72
2024-01-26T07:13:06.181Z,101818.09
2024-01-26T07:15:33.340Z,101806.84
2024-01-26T07:18:00.677Z,101792.97
2024-01-26T07:20:27.898Z,101809.38
2024-01-26T07:22:55.184Z,101815.47
2024-01-26T07:25:22.881Z,101818.91
2024-01-26T07:27:50.528Z,101816.31
2024-01-26T07:30:20.292Z,101816.28
2024-01-26T07:32:47.657Z,101820.59
2024-01-26T07:35:14.970Z,101820.59
2024-01-26T07:37:42.221Z,101821.47
2024-01-26T07:40:09.918Z,101828.41
2024-01-26T07:42:37.037Z,101821.47
2024-01-26T07:45:04.593Z,101835.31
2024-01-26T07:47:32.043Z,101824.94
2024-01-26T07:49:59.429Z,101833.56
2024-01-26T07:52:26.632Z,101834.41
2024-01-26T07:54:54.749Z,101849.13
2024-01-26T07:57:22.508Z,101847.41
2024-01-26T07:59:50.038Z,101847.41
2024-01-26T08:02:17.591Z,101847.41
2024-01-26T08:04:45.299Z,101850.00
2024-01-26T08:07:12.806Z,101854.34
2024-01-26T08:09:40.041Z,101858.63
2024-01-26T08:12:07.430Z,101861.25
2024-01-26T08:14:34.746Z,101859.47
2024-01-26T08:17:01.951Z,101856.03
2024-01-26T08:19:29.972Z,101855.09
2024-01-26T08:21:57.667Z,101861.16
2024-01-26T08:24:25.068Z,101857.69
2024-01-26T08:26:52.245Z,101846.44
2024-01-26T08:29:23.320Z,101857.66
2024-01-26T08:31:50.456Z,101851.59
2024-01-26T08:34:17.724Z,101849.00
2024-01-26T08:36:45.119Z,101840.34
2024-01-26T08:39:15.609Z,101841.22
2024-01-26T08:41:45.089Z,101847.31
2024-01-26T08:44:12.309Z,101861.13
2024-01-26T08:46:39.872Z,101855.91
2024-01-26T08:49:10.113Z,101862.88
2024-01-26T08:51:37.324Z,101869.78
2024-01-26T08:54:04.932Z,101852.50
2024-01-26T08:56:32.186Z,101870.66
2024-01-26T08:59:01.003Z,101887.13
2024-01-26T09:01:28.332Z,101894.03
2024-01-26T09:03:55.551Z,101904.47
2024-01-26T09:06:23.064Z,101897.53
2024-01-26T09:08:50.435Z,101900.16
2024-01-26T09:11:17.548Z,101902.78
2024-01-26T09:13:44.709Z,101921.84
2024-01-26T09:16:12.989Z,101961.66
2024-01-26T09:18:44.014Z,101960.84
2024-01-26T09:21:14.786Z,101959.16
2024-01-26T09:23:45.107Z,101967.88
2024-01-26T09:26:12.978Z,101967.84
2024-01-26T09:28:42.903Z,101979.97
2024-01-26T09:31:10.188Z,101992.09
2024-01-26T09:33:37.647Z,101993.81
2024-01-26T09:36:05.243Z,102002.50
2024-01-26T09:38:32.616Z,102012.00
2024-01-26T09:41:00.090Z,102020.69
2024-01-26T09:43:27.189Z,102046.59
2024-01-26T09:45:54.423Z,102048.34
2024-01-26T09:48:22.085Z,102055.25
2024-01-26T09:50:55.395Z,102063.03
2024-01-26T09:53:25.249Z,102083.78
2024-01-26T09:55:53.529Z,102088.94
2024-01-26T09:58:20.735Z,102096.69
2024-01-26T10:00:48.214Z,102097.56
2024-01-26T10:03:15.495Z,102125.22
2024-01-26T10:05:43.327Z,102124.34
2024-01-26T10:08:10.900Z,102137.28
2024-01-26T10:10:38.542Z,102155.41
2024-01-26T10:13:09.732Z,102163.19
2024-01-26T10:15:37.219Z,102170.94
2024-01-26T10:18:05.279Z,102174.44
2024-01-26T10:20:32.700Z,102187.38
2024-01-26T10:22:59.842Z,102192.59
2024-01-26T10:25:27.485Z,102178.78
2024-01-26T10:27:54.807Z,102186.56
2024-01-26T10:30:22.592Z,102198.63
2024-01-26T10:32:52.553Z,102210.72
2024-01-26T10:35:23.962Z,102215.09
2024-01-26T10:37:51.414Z,102226.31
2024-01-26T10:40:21.127Z,102228.91
2024-01-26T10:42:49.087Z,102228.91
2024-01-26T10:45:17.349Z,102243.59
2024-01-26T10:47:46.332Z,102241.00
2024-01-26T10:50:13.882Z,102262.59
2024-01-26T10:52:42.124Z,102273.00
2024-01-26T10:55:12.592Z,102284.25
2024-01-26T10:57:39.761Z,102283.38
2024-01-26T11:00:08.159Z,102293.72
2024-01-26T11:02:38.424Z,102301.50
2024-01-26T11:05:11.546Z,102304.09
2024-01-26T11:07:40.821Z,102312.75
2024-01-26T11:10:13.133Z,102302.31
2024-01-26T11:12:40.388Z,102321.31
2024-01-26T11:15:10.077Z,102337.75
2024-01-26T11:18:00.226Z,102351.59
2024-01-26T11:20:32.453Z,102360.22
2024-01-26T11:23:00.459Z,102348.97
2024-01-26T11:25:27.912Z,102366.25
2024-01-26T11:28:00.481Z,102366.25
2024-01-26T11:30:30.557Z,102376.59
2024-01-26T11:32:59.269Z,102388.72
2024-01-26T11:35:26.631Z,102390.41
2024-01-26T11:37:55.988Z,102405.13
2024-01-26T11:40:25.116Z,102408.56
2024-01-26T11:42:53.273Z,102415.47
2024-01-26T11:45:43.742Z,102415.44
2024-01-26T11:48:12.607Z,102436.19
2024-01-26T11:50:45.297Z,102431.84
2024-01-26T11:53:14.630Z,102443.88
2024-01-26T11:55:43.308Z,102436.09
2024-01-26T11:58:14.377Z,102454.25
2024-01-26T12:00:41.975Z,102473.28
2024-01-26T12:03:10.758Z,102473.22
2024-01-26T12:05:39.360Z,102460.22
2024-01-26T12:08:08.067Z,102465.34
2024-01-26T12:10:36.907Z,102475.72
2024-01-26T12:13:06.733Z,102504.22
2024-01-26T12:15:41.386Z,102502.47
2024-01-26T12:18:13.591Z,102506.81
2024-01-26T12:20:41.929Z,102513.69
2024-01-26T12:23:22.668Z,102521.47
2024-01-26T12:25:54.333Z,102523.25
2024-01-26T12:28:22.316Z,102537.97
2024-01-26T12:30:50.467Z,102531.94
2024-01-26T12:33:18.117Z,102543.97
2024-01-26T12:35:49.079Z,102553.53
2024-01-26T12:38:17.008Z,102554.38
2024-01-26T12:40:44.450Z,102557.81
2024-01-26T12:43:13.453Z,102551.75
2024-01-26T12:45:40.724Z,102558.56
2024-01-26T12:48:09.622Z,102559.38
2024-01-26T12:50:37.007Z,102575.78
2024-01-26T12:53:04.833Z,102587.88
2024-01-26T12:55:32.019Z,102600.81
2024-01-26T12:57:59.119Z,102594.78
2024-01-26T13:00:27.036Z,102609.41
2024-01-26T13:02:55.375Z,102611.97
2024-01-26T13:05:22.627Z,102620.56
2024-01-26T13:07:49.883Z,102618.81
2024-01-26T13:10:16.958Z,102636.00
2024-01-26T13:12:44.245Z,102625.63
2024-01-26T13:15:12.150Z,102645.50
2024-01-26T13:17:39.405Z,102656.66
2024-01-26T13:20:19.037Z,102651.47
2024-01-26T13:22:49.494Z,102661.78
2024-01-26T13:25:17.256Z,102679.00
2024-01-26T13:27:44.843Z,102691.09
2024-01-26T13:30:12.878Z,102686.75
2024-01-26T13:32:40.319Z,102687.63
2024-01-26T13:35:07.985Z,102690.19
2024-01-26T13:37:35.120Z,102696.16
2024-01-26T13:40:06.200Z,102704.72
2024-01-26T13:42:34.194Z,102699.53
2024-01-26T13:45:01.904Z,102712.47
2024-01-26T13:47:30.413Z,102707.25
2024-01-26T13:49:58.069Z,102710.72
2024-01-26T13:52:25.393Z,102718.41
2024-01-26T13:54:52.510Z,102718.38
2024-01-26T13:57:19.909Z,102730.44
2024-01-26T13:59:47.126Z,102732.22
2024-01-26T14:02:14.296Z,102720.13
2024-01-26T14:04:41.359Z,102733.06
2024-01-26T14:07:08.643Z,102736.47
2024-01-26T14:09:36.253Z,102735.63
2024-01-26T14:12:05.093Z,102742.50
2024-01-26T14:14:32.484Z,102753.69
2024-01-26T14:16:59.593Z,102757.09
2024-01-26T14:19:27.102Z,102766.56
2024-01-26T14:21:55.728Z,102772.63
2024-01-26T14:24:23.135Z,102775.22
2024-01-26T14:26:50.509Z,102788.94
2024-01-26T14:29:19.369Z,102792.34
2024-01-26T14:31:51.019Z,102791.50
2024-01-26T14:34:18.737Z,102794.06
2024-01-26T14:36:46.955Z,102795.81
2024-01-26T14:39:14.689Z,102810.47
2024-01-26T14:41:42.214Z,102820.84
2024-01-26T14:44:09.464Z,102823.44
2024-01-26T14:46:36.934Z,102829.38
2024-01-26T14:49:05.693Z,102838.81
2024-01-26T14:51:34.473Z,102831.88
2024-01-26T14:54:03.104Z,102840.41
2024-01-26T14:56:32.066Z,102837.75
2024-01-26T14:58:59.516Z,102844.63
2024-01-26T15:01:26.961Z,102850.75
2024-01-26T15:03:54.242Z,102859.41
2024-01-26T15:06:21.576Z,102869.69
2024-01-26T15:08:48.820Z,102879.13
2024-01-26T15:11:16.109Z,102884.28
2024-01-26T15:13:43.280Z,102885.13
2024-01-26T15:16:16.589Z,102885.13
2024-01-26T15:18:43.967Z,102891.06
2024-01-26T15:21:18.573Z,102898.75
2024-01-26T15:23:45.848Z,102905.66
2024-01-26T15:26:13.490Z,102904.72
2024-01-26T15:28:40.578Z,102911.59
2024-01-26T15:31:08.123Z,102921.09
2024-01-26T15:33:35.358Z,102917.66
2024-01-26T15:36:02.814Z,102932.34
2024-01-26T15:38:29.973Z,102928.84
2024-01-26T15:40:57.155Z,102922.69
2024-01-26T15:43:24.275Z,102931.28
2024-01-26T15:45:51.421Z,102939.88
2024-01-26T15:48:18.692Z,102938.94
2024-01-26T15:50:45.962Z,102945.66
2024-01-26T15:53:13.251Z,102955.84
2024-01-26T15:55:40.382Z,102957.50
2024-01-26T15:58:07.480Z,102955.75
2024-01-26T16:00:34.838Z,102964.28
2024-01-26T16:03:02.151Z,102971.06
2024-01-26T16:05:29.348Z,102985.75
2024-01-26T16:07:56.465Z,102993.50
2024-01-26T16:10:23.643Z,102982.31
2024-01-26T16:12:50.766Z,103003.84
2024-01-26T16:15:18.012Z,103001.25
2024-01-26T16:17:45.300Z,103007.25
2024-01-26T16:20:12.620Z,103015.75
2024-01-26T16:22:40.056Z,103013.03
2024-01-26T16:25:08.348Z,103023.38
2024-01-26T16:27:35.549Z,103031.97
2024-01-26T16:30:07.062Z,103028.50
2024-01-26T16:32:34.808Z,103039.56
2024-01-26T16:35:02.084Z,103037.81
2024-01-26T16:37:32.072Z,103036.00
2024-01-26T16:40:01.001Z,103040.25
2024-01-26T16:42:28.452Z,103045.41
2024-01-26T16:44:55.685Z,103054.03
2024-01-26T16:47:22.818Z,103056.47
2024-01-26T16:49:55.039Z,103066.66
2024-01-26T16:52:23.336Z,103069.22
2024-01-26T16:54:50.975Z,103074.31
2024-01-26T16:57:18.210Z,103078.56
2024-01-26T16:59:45.674Z,103085.38
2024-01-26T17:02:12.849Z,103093.13
2024-01-26T17:04:40.128Z,103088.84
2024-01-26T17:07:07.430Z,103090.59
2024-01-26T17:09:34.684Z,103094.84
2024-01-26T17:12:02.156Z,103103.41
2024-01-26T17:14:29.273Z,103098.22
2024-01-26T17:16:56.612Z,103108.41
2024-01-26T17:19:23.880Z,103115.16
2024-01-26T17:21:51.209Z,103117.63
2024-01-26T17:24:18.442Z,103117.56
2024-01-26T17:26:45.725Z,103130.47
2024-01-26T17:29:12.870Z,103127.81
2024-01-26T17:31:40.038Z,103132.06
2024-01-26T17:34:07.329Z,103139.66
2024-01-26T17:36:34.562Z,103143.09
2024-01-26T17:39:02.549Z,103149.03
2024-01-26T17:41:29.679Z,103151.63
2024-01-26T17:43:57.225Z,103157.63
2024-01-26T17:46:24.478Z,103161.97
2024-01-26T17:48:51.841Z,103168.91
2024-01-26T17:51:19.214Z,103164.56
2024-01-26T17:53:46.393Z,103168.81
2024-01-26T17:56:13.611Z,103172.91
2024-01-26T17:58:40.864Z,103171.94
2024-01-26T18:01:08.014Z,103173.66
2024-01-26T18:03:35.262Z,103180.41
2024-01-26T18:06:02.572Z,103183.69
2024-01-26T18:08:29.814Z,103185.28
2024-01-26T18:10:57.993Z,103193.03
2024-01-26T18:13:25.191Z,103187.81
2024-01-26T18:15:52.333Z,103197.25
2024-01-26T18:18:19.754Z,103205.13
2024-01-26T18:20:48.131Z,103207.06
2024-01-26T18:23:15.422Z,103209.84
2024-01-26T18:25:42.667Z,103220.34
2024-01-26T18:28:09.943Z,103225.59
2024-01-26T18:30:37.032Z,103223.13
2024-01-26T18:33:04.651Z,103226.63
2024-01-26T18:35:31.788Z,103231.84
2024-01-26T18:37:58.940Z,103233.59
2024-01-26T18:40:26.116Z,103236.19
2024-01-26T18:42:53.226Z,103238.75
2024-01-26T18:45:20.885Z,103237.78
2024-01-26T18:47:48.342Z,103242.00
2024-01-26T18:50:15.882Z,103236.75
2024-01-26T18:52:43.080Z,103246.16
2024-01-26T18:55:10.849Z,103248.69
2024-01-26T18:57:38.549Z,103253.88
2024-01-26T19:00:09.855Z,103259.06
2024-01-26T19:02:38.631Z,103264.31
2024-01-26T19:05:11.234Z,103264.34
2024-01-26T19:07:40.422Z,103274.81
2024-01-26T19:10:08.158Z,103280.88
2024-01-26T19:12:35.633Z,103276.44
2024-01-26T19:15:03.661Z,103279.72
2024-01-26T19:17:31.424Z,103284.81
2024-01-26T19:19:59.762Z,103295.84
2024-01-26T19:22:27.251Z,103290.56
2024-01-26T19:24:54.613Z,103293.94
2024-01-26T19:27:21.911Z,103294.78
2024-01-26T19:29:49.174Z,103298.25
2024-01-26T19:32:17.718Z,103299.13
2024-01-26T19:34:45.218Z,103300.75
2024-01-26T19:37:12.540Z,103307.56
2024-01-26T19:39:40.530Z,103310.06
2024-01-26T19:42:08.223Z,103308.22
2024-01-26T19:44:35.405Z,103310.84
2024-01-26T19:47:04.618Z,103313.38
2024-01-26T19:49:32.959Z,103314.16
2024-01-26T19:52:00.324Z,103316.75
2024-01-26T19:54:27.495Z,103313.19
2024-01-26T19:56:54.958Z,103308.69
2024-01-26T19:59:22.238Z,103316.22
2024-01-26T20:01:49.364Z,103322.91
2024-01-26T20:04:16.553Z,103322.00
2024-01-26T20:06:43.895Z,103317.63
2024-01-26T20:09:11.459Z,103323.59
2024-01-26T20:11:39.866Z,103323.59
2024-01-26T20:14:08.670Z,103316.69
2024-01-26T20:16:36.476Z,103320.72
2024-01-26T20:19:05.365Z,103318.72
2024-01-26T20:21:32.815Z,103319.34
2024-01-26T20:24:00.105Z,103326.13
2024-01-26T20:26:27.322Z,103333.84
2024-01-26T20:28:54.753Z,103332.94
2024-01-26T20:31:21.994Z,103332.03
2024-01-26T20:33:49.625Z,103330.16
2024-01-26T20:36:17.024Z,103328.22
2024-01-26T20:38:45.655Z,103333.25
2024-01-26T20:41:12.898Z,103334.84
2024-01-26T20:43:39.962Z,103336.56
2024-01-26T20:46:10.297Z,103339.88
2024-01-26T20:48:38.819Z,103345.78
2024-01-26T20:51:06.437Z,103348.84
2024-01-26T20:53:35.942Z,103341.50
2024-01-26T20:56:04.299Z,103331.16
2024-01-26T20:58:31.623Z,103333.06
2024-01-26T21:00:58.940Z,103329.91
2024-01-26T21:03:26.354Z,103326.63
2024-01-26T21:05:54.091Z,103333.47
2024-01-26T21:08:24.635Z,103343.59
2024-01-26T21:10:51.908Z,103350.97
2024-01-26T21:13:19.363Z,103350.63
2024-01-26T21:15:49.578Z,103354.72
2024-01-26T21:18:19.599Z,103350.34
2024-01-26T21:20:47.087Z,103352.31
2024-01-26T21:23:14.921Z,103344.75
2024-01-26T21:25:42.305Z,103339.72
2024-01-26T21:28:10.551Z,103349.34
2024-01-26T21:30:38.479Z,103341.78
2024-01-26T21:33:06.059Z,103335.88
2024-01-26T21:35:33.353Z,103342.81
2024-01-26T21:38:00.917Z,103354.03
2024-01-26T21:40:31.243Z,103349.44
2024-01-26T21:42:58.943Z,103361.75
2024-01-26T21:45:26.367Z,103364.91
2024-01-26T21:47:54.387Z,103367.44
2024-01-26T21:50:23.532Z,103365.84
2024-01-26T21:52:50.786Z,103374.47
2024-01-26T21:55:18.046Z,103370.94
2024-01-26T21:57:45.374Z,103371.88
2024-01-26T22:00:14.578Z,103368.53
2024-01-26T22:02:42.292Z,103376.28
2024-01-26T22:05:13.076Z,103378.00
2024-01-26T22:07:40.689Z,103384.00
2024-01-26T22:10:08.612Z,103382.38
2024-01-26T22:12:35.912Z,103380.47
2024-01-26T22:15:06.326Z,103387.25
2024-01-26T22:17:33.786Z,103388.03
2024-01-26T22:20:01.288Z,103385.31
2024-01-26T22:22:28.921Z,103386.28
2024-01-26T22:24:56.220Z,103400.97
2024-01-26T22:27:24.101Z,103396.44
2024-01-26T22:29:56.592Z,103392.00
2024-01-26T22:32:24.111Z,103394.44
2024-01-26T22:34:51.480Z,103393.41
2024-01-26T22:37:19.039Z,103389.00
2024-01-26T22:39:47.502Z,103407.78
2024-01-26T22:42:15.632Z,103403.31
2024-01-26T22:44:43.026Z,103400.72
2024-01-26T22:47:10.424Z,103400.53
2024-01-26T22:49:38.812Z,103394.41
2024-01-26T22:52:06.251Z,103401.31
2024-01-26T22:54:33.486Z,103406.47
2024-01-26T22:57:00.660Z,103410.75
2024-01-26T22:59:27.909Z,103418.47
2024-01-26T23:01:55.385Z,103413.19
2024-01-26T23:04:22.981Z,103409.78
2024-01-26T23:06:51.650Z,103421.91
2024-01-26T23:09:19.246Z,103422.91
2024-01-26T23:11:46.651Z,103426.44
2024-01-26T23:14:14.279Z,103424.72
2024-01-26T23:16:42.055Z,103423.63
2024-01-26T23:19:10.000Z,103433.69
2024-01-26T23:21:37.406Z,103425.06
2024-01-26T23:24:04.602Z,103423.41
2024-01-26T23:26:31.873Z,103429.44
2024-01-26T23:28:59.320Z,103436.34
2024-01-26T23:31:29.726Z,103445.84
2024-01-26T23:33:57.210Z,103447.41
2024-01-26T23:36:24.577Z,103444.75
2024-01-26T23:38:52.801Z,103440.03
2024-01-26T23:41:21.210Z,103446.00
2024-01-26T23:43:50.260Z,103445.19
2024-01-26T23:46:18.068Z,103447.00
2024-01-26T23:48:45.504Z,103449.66
2024-01-26T23:51:13.072Z,103446.19
2024-01-26T23:53:40.253Z,103455.47
2024-01-26T23:56:07.771Z,103449.31
2024-01-26T23:58:35.132Z,103459.34
